Time;durP1;ratioP1;P1;durP2;ratioP2;P2;SDS_P1;SDS_P2;PMS_P1;PMS_P2;Temp;Humidity;BMP_temperature;BMP_pressure;BME280_temperature;BME280_humidity;BME280_pressure;Samples;Min_cycle;Max_cycle;Signal;HPM_P1;HPM_P2
2023/09/27 00:02:21;;;;;;;;;;;14.40;99.90;;;;;;5103403;28;19955;-80
2023/09/27 00:04:46;;;;;;;;;;;14.40;99.90;;;;;;5078604;28;20311;-80
2023/09/27 00:07:18;;;;;;;;;;;14.40;99.90;;;;;;5102765;28;19932;-80
2023/09/27 00:09:44;;;;;;;;;;;14.40;99.90;;;;;;5104311;28;19931;-80
2023/09/27 00:12:12;;;;;;;;;;;14.40;99.90;;;;;;5100815;28;20314;-80
2023/09/27 00:14:41;;;;;;;;;;;14.40;99.90;;;;;;5091658;28;19932;-80
2023/09/27 00:17:12;;;;;;;;;;;14.30;99.90;;;;;;5103800;28;19928;-80
2023/09/27 00:19:38;;;;;;;;;;;14.30;99.90;;;;;;5089603;28;19924;-80
2023/09/27 00:22:13;;;;;;;;;;;14.30;99.90;;;;;;5085653;28;19979;-81
2023/09/27 00:24:39;;;;;;;;;;;14.30;99.90;;;;;;5084517;28;19976;-81
2023/09/27 00:27:05;;;;;;;;;;;14.30;99.90;;;;;;5087812;28;20184;-81
2023/09/27 00:29:34;;;;;;;;;;;14.30;99.90;;;;;;5100496;28;19929;-80
2023/09/27 00:31:59;;;;;;;;;;;14.30;99.90;;;;;;5103397;28;19982;-79
2023/09/27 00:34:28;;;;;;;;;;;14.30;99.90;;;;;;5088023;28;19975;-80
2023/09/27 00:36:59;;;;;;;;;;;14.30;99.90;;;;;;5090035;28;19967;-79
2023/09/27 00:39:25;;;;;;;;;;;14.40;99.90;;;;;;5085239;28;19963;-79
2023/09/27 00:41:50;;;;;;;;;;;14.40;99.90;;;;;;5093838;27;19979;-79
2023/09/27 00:44:20;;;;;;;;;;;14.50;99.90;;;;;;5117297;27;19924;-79
2023/09/27 00:46:49;;;;;;;;;;;14.40;99.90;;;;;;5096632;28;19928;-79
2023/09/27 00:49:15;;;;;;;;;;;14.50;99.90;;;;;;5114476;27;20009;-80
2023/09/27 00:51:41;;;;;;;;;;;14.40;99.90;;;;;;5099994;28;19990;-81
2023/09/27 00:54:07;;;;;;;;;;;14.40;99.90;;;;;;5100112;28;20427;-80
2023/09/27 00:56:42;;;;;;;;;;;14.40;99.90;;;;;;5101556;28;19943;-81
2023/09/27 00:59:10;;;;;;;;;;;14.40;99.90;;;;;;5095684;27;19978;-80
2023/09/27 01:01:36;;;;;;;;;;;14.40;99.90;;;;;;5087113;28;19924;-80
2023/09/27 01:04:14;;;;;;;;;;;14.40;99.90;;;;;;5099435;28;19977;-81
2023/09/27 01:06:40;;;;;;;;;;;14.40;99.90;;;;;;5091824;28;20158;-80
2023/09/27 01:09:06;;;;;;;;;;;14.30;99.90;;;;;;5092966;28;19930;-81
2023/09/27 01:11:37;;;;;;;;;;;14.30;99.90;;;;;;5081132;28;19924;-80
2023/09/27 01:14:03;;;;;;;;;;;14.20;99.90;;;;;;5099080;28;20286;-79
2023/09/27 01:16:28;;;;;;;;;;;14.30;99.90;;;;;;5114416;27;20054;-79
2023/09/27 01:18:59;;;;;;;;;;;14.20;99.90;;;;;;5114285;27;20298;-79
2023/09/27 01:21:25;;;;;;;;;;;14.20;99.90;;;;;;5098234;28;20289;-79
2023/09/27 01:23:51;;;;;;;;;;;14.20;99.90;;;;;;5074708;28;19927;-79
2023/09/27 01:26:18;;;;;;;;;;;14.20;99.90;;;;;;5077263;28;20852;-80
2023/09/27 01:28:50;;;;;;;;;;;14.10;99.90;;;;;;5096278;28;19936;-79
2023/09/27 01:31:18;;;;;;;;;;;14.20;99.90;;;;;;5095976;28;19931;-79
2023/09/27 01:33:44;;;;;;;;;;;14.20;99.90;;;;;;5080673;28;20019;-80
2023/09/27 01:36:11;;;;;;;;;;;14.10;99.90;;;;;;5082269;28;20417;-80
2023/09/27 01:38:38;;;;;;;;;;;14.20;99.90;;;;;;5109588;27;19987;-80
2023/09/27 01:41:06;;;;;;;;;;;14.20;99.90;;;;;;5110487;27;19931;-79
2023/09/27 01:43:37;;;;;;;;;;;14.20;99.90;;;;;;5079658;28;19971;-80
2023/09/27 01:46:02;;;;;;;;;;;14.20;99.90;;;;;;5114110;27;20123;-79
2023/09/27 01:48:28;;;;;;;;;;;14.20;99.90;;;;;;5100212;28;19927;-79
2023/09/27 01:50:54;;;;;;;;;;;14.20;99.90;;;;;;5082545;28;19924;-79
2023/09/27 01:53:20;;;;;;;;;;;14.20;99.90;;;;;;5080933;28;19967;-79
2023/09/27 01:55:47;;;;;;;;;;;14.10;99.90;;;;;;5098237;28;19938;-80
2023/09/27 01:58:13;;;;;;;;;;;14.10;99.90;;;;;;5112158;27;19923;-79
2023/09/27 02:00:38;;;;;;;;;;;14.00;99.90;;;;;;5110793;27;19996;-78
2023/09/27 02:03:04;;;;;;;;;;;14.00;99.90;;;;;;5115932;27;20513;-79
2023/09/27 02:05:30;;;;;;;;;;;13.90;99.90;;;;;;5082082;28;20007;-79
2023/09/27 02:07:56;;;;;;;;;;;13.90;99.90;;;;;;5084154;28;19963;-79
2023/09/27 02:10:22;;;;;;;;;;;13.90;99.90;;;;;;5097990;28;20122;-80
2023/09/27 02:12:48;;;;;;;;;;;13.90;99.90;;;;;;5084288;28;20386;-80
2023/09/27 02:15:14;;;;;;;;;;;13.90;99.90;;;;;;5098924;28;20395;-80
2023/09/27 02:17:40;;;;;;;;;;;13.90;99.90;;;;;;5083428;28;19935;-80
2023/09/27 02:20:10;;;;;;;;;;;13.80;99.90;;;;;;5098651;28;19924;-80
2023/09/27 02:22:36;;;;;;;;;;;13.80;99.90;;;;;;5082180;28;20034;-79
2023/09/27 02:25:03;;;;;;;;;;;13.80;99.90;;;;;;5097983;28;20330;-80
2023/09/27 02:27:28;;;;;;;;;;;13.70;99.90;;;;;;5085317;28;20164;-80
2023/09/27 02:29:54;;;;;;;;;;;13.70;99.90;;;;;;5117421;27;20416;-80
2023/09/27 02:32:19;;;;;;;;;;;13.60;99.90;;;;;;5099428;28;20523;-80
2023/09/27 02:34:46;;;;;;;;;;;13.60;99.90;;;;;;5097301;28;19931;-80
2023/09/27 02:37:15;;;;;;;;;;;13.50;99.90;;;;;;5074751;28;19927;-80
2023/09/27 02:39:44;;;;;;;;;;;13.40;99.90;;;;;;5080383;28;19928;-80
2023/09/27 02:42:10;;;;;;;;;;;13.40;99.90;;;;;;5125671;27;19927;-80
2023/09/27 02:44:36;;;;;;;;;;;13.30;99.90;;;;;;5084428;28;19924;-80
2023/09/27 02:47:02;;;;;;;;;;;13.30;99.90;;;;;;5086734;28;20286;-80
2023/09/27 02:49:28;;;;;;;;;;;13.30;99.90;;;;;;5098653;28;19939;-80
2023/09/27 02:51:55;;;;;;;;;;;13.30;99.90;;;;;;5079865;28;19924;-80
2023/09/27 02:54:21;;;;;;;;;;;13.30;99.90;;;;;;5106460;27;19923;-80
2023/09/27 02:56:47;;;;;;;;;;;13.30;99.90;;;;;;5096125;28;20351;-79
2023/09/27 02:59:12;;;;;;;;;;;13.20;99.90;;;;;;5071939;28;19938;-79
2023/09/27 03:01:40;;;;;;;;;;;13.20;99.90;;;;;;5073147;28;20408;-79
2023/09/27 03:04:06;;;;;;;;;;;13.20;99.90;;;;;;5080602;28;19928;-78
2023/09/27 03:06:33;;;;;;;;;;;13.20;99.90;;;;;;5087995;28;19931;-79
2023/09/27 03:08:58;;;;;;;;;;;13.20;99.90;;;;;;5094546;28;19928;-79
2023/09/27 03:11:24;;;;;;;;;;;13.10;99.90;;;;;;5086292;28;20503;-79
2023/09/27 03:13:50;;;;;;;;;;;13.10;99.90;;;;;;5071624;28;19933;-79
2023/09/27 03:16:16;;;;;;;;;;;13.20;99.90;;;;;;5098244;28;19924;-80
2023/09/27 03:18:42;;;;;;;;;;;13.10;99.90;;;;;;5081530;28;19924;-79
2023/09/27 03:21:07;;;;;;;;;;;13.10;99.90;;;;;;5085144;28;20289;-79
2023/09/27 03:23:33;;;;;;;;;;;13.10;99.90;;;;;;5099813;28;19964;-80
2023/09/27 03:25:59;;;;;;;;;;;13.10;99.90;;;;;;5089905;28;19928;-79
2023/09/27 03:28:24;;;;;;;;;;;13.10;99.90;;;;;;5102683;28;20011;-80
2023/09/27 03:30:50;;;;;;;;;;;13.00;99.90;;;;;;5099455;28;20413;-80
2023/09/27 03:33:16;;;;;;;;;;;13.10;99.90;;;;;;5132161;27;20390;-79
2023/09/27 03:35:41;;;;;;;;;;;13.00;99.90;;;;;;5077601;28;20004;-80
2023/09/27 03:38:08;;;;;;;;;;;13.10;99.90;;;;;;5115025;27;19925;-80
2023/09/27 03:40:33;;;;;;;;;;;13.10;99.90;;;;;;5097472;28;19986;-80
2023/09/27 03:42:59;;;;;;;;;;;13.10;99.90;;;;;;5105826;27;20347;-80
2023/09/27 03:45:25;;;;;;;;;;;13.10;99.90;;;;;;5081331;28;19928;-80
2023/09/27 03:47:51;;;;;;;;;;;13.10;99.90;;;;;;5110747;27;19963;-80
2023/09/27 03:50:17;;;;;;;;;;;13.10;99.90;;;;;;5111895;27;19954;-80
2023/09/27 03:52:42;;;;;;;;;;;13.10;99.90;;;;;;5112342;27;19924;-80
2023/09/27 03:55:11;;;;;;;;;;;13.10;99.90;;;;;;5100226;28;19928;-80
2023/09/27 03:57:37;;;;;;;;;;;13.00;99.90;;;;;;5125574;27;19949;-79
2023/09/27 04:00:14;;;;;;;;;;;13.00;99.90;;;;;;5105543;27;20000;-79
2023/09/27 04:02:40;;;;;;;;;;;13.00;99.90;;;;;;5139001;27;19923;-80
2023/09/27 04:05:06;;;;;;;;;;;13.00;99.90;;;;;;5097536;27;19924;-80
2023/09/27 04:07:32;;;;;;;;;;;13.00;99.90;;;;;;5088721;28;20490;-80
2023/09/27 04:09:58;;;;;;;;;;;13.00;99.90;;;;;;5092949;28;19950;-80
2023/09/27 04:12:23;;;;;;;;;;;13.00;99.90;;;;;;5087964;28;20665;-80
2023/09/27 04:14:49;;;;;;;;;;;13.00;99.90;;;;;;5079980;28;19924;-80
2023/09/27 04:17:14;;;;;;;;;;;12.90;99.90;;;;;;5118035;27;19927;-80
2023/09/27 04:19:40;;;;;;;;;;;12.90;99.90;;;;;;5118088;27;19990;-81
2023/09/27 04:22:06;;;;;;;;;;;12.90;99.90;;;;;;5127572;27;20198;-81
2023/09/27 04:24:31;;;;;;;;;;;13.00;99.90;;;;;;5103378;28;20014;-81
2023/09/27 04:26:58;;;;;;;;;;;13.00;99.90;;;;;;5094721;28;19977;-81
2023/09/27 04:29:24;;;;;;;;;;;12.90;99.90;;;;;;5129612;27;19928;-80
2023/09/27 04:31:49;;;;;;;;;;;12.90;99.90;;;;;;5102965;28;20500;-80
2023/09/27 04:34:15;;;;;;;;;;;12.90;99.90;;;;;;5083338;28;19930;-81
2023/09/27 04:36:41;;;;;;;;;;;12.90;99.90;;;;;;5088440;28;19927;-81
2023/09/27 04:39:13;;;;;;;;;;;12.90;99.90;;;;;;5086574;28;19960;-81
2023/09/27 04:41:39;;;;;;;;;;;12.90;99.90;;;;;;5085575;28;19924;-80
2023/09/27 04:44:06;;;;;;;;;;;12.80;99.90;;;;;;5101922;28;19928;-80
2023/09/27 04:46:34;;;;;;;;;;;12.80;99.90;;;;;;5136819;27;19945;-80
2023/09/27 04:49:00;;;;;;;;;;;12.80;99.90;;;;;;5084450;28;19926;-80
2023/09/27 04:51:26;;;;;;;;;;;12.80;99.90;;;;;;5086792;28;20091;-81
2023/09/27 04:53:51;;;;;;;;;;;12.80;99.90;;;;;;5099167;28;20012;-80
2023/09/27 04:56:17;;;;;;;;;;;12.70;99.90;;;;;;5102081;28;20030;-80
2023/09/27 04:58:43;;;;;;;;;;;12.70;99.90;;;;;;5085778;28;19928;-81
2023/09/27 05:01:11;;;;;;;;;;;12.70;99.90;;;;;;5087366;28;20401;-80
2023/09/27 05:03:37;;;;;;;;;;;12.70;99.90;;;;;;5101786;27;19959;-81
2023/09/27 05:06:06;;;;;;;;;;;12.70;99.90;;;;;;5130356;27;19924;-80
2023/09/27 05:08:35;;;;;;;;;;;12.70;99.90;;;;;;5088211;28;20006;-79
2023/09/27 05:11:01;;;;;;;;;;;12.60;99.90;;;;;;5114877;27;20050;-81
2023/09/27 05:13:26;;;;;;;;;;;12.60;99.90;;;;;;5084303;28;20286;-81
2023/09/27 05:15:52;;;;;;;;;;;12.70;99.90;;;;;;5081216;28;19932;-81
2023/09/27 05:18:19;;;;;;;;;;;12.70;99.90;;;;;;5099641;28;20015;-81
2023/09/27 05:20:44;;;;;;;;;;;12.70;99.90;;;;;;5084519;28;19924;-81
2023/09/27 05:23:10;;;;;;;;;;;12.70;99.90;;;;;;5103198;27;19924;-81
2023/09/27 05:25:36;;;;;;;;;;;12.70;99.90;;;;;;5085133;28;19932;-81
2023/09/27 05:28:02;;;;;;;;;;;12.80;99.90;;;;;;5083170;28;20060;-81
2023/09/27 05:30:27;;;;;;;;;;;12.70;99.90;;;;;;5082707;28;19942;-81
2023/09/27 05:32:53;;;;;;;;;;;12.90;99.90;;;;;;5097967;28;19939;-81
2023/09/27 05:35:19;;;;;;;;;;;12.90;99.90;;;;;;5083635;28;19928;-81
2023/09/27 05:37:44;;;;;;;;;;;12.90;99.90;;;;;;5133429;27;19939;-81
2023/09/27 05:40:10;;;;;;;;;;;13.00;99.90;;;;;;5099581;27;19948;-81
2023/09/27 05:42:39;;;;;;;;;;;13.10;99.90;;;;;;5100976;28;19931;-81
2023/09/27 05:45:05;;;;;;;;;;;13.10;99.90;;;;;;5083956;28;19930;-81
2023/09/27 05:47:32;;;;;;;;;;;13.10;99.90;;;;;;5083130;28;21017;-81
2023/09/27 05:49:57;;;;;;;;;;;13.20;99.90;;;;;;5097826;28;20038;-81
2023/09/27 05:52:23;;;;;;;;;;;13.30;99.90;;;;;;5117065;27;20018;-80
2023/09/27 05:54:51;;;;;;;;;;;13.30;99.90;;;;;;5081161;28;20393;-75
2023/09/27 05:57:16;;;;;;;;;;;13.40;99.90;;;;;;5083766;28;19971;-75
2023/09/27 05:59:44;;;;;;;;;;;13.40;99.90;;;;;;5096379;28;19983;-75
2023/09/27 06:02:16;;;;;;;;;;;13.50;99.90;;;;;;5113968;27;19978;-75
2023/09/27 06:04:48;;;;;;;;;;;13.50;99.90;;;;;;5101888;28;20034;-75
2023/09/27 06:07:15;;;;;;;;;;;13.50;99.90;;;;;;5115677;27;19923;-75
2023/09/27 06:09:41;;;;;;;;;;;13.50;99.90;;;;;;5084724;28;20112;-75
2023/09/27 06:12:07;;;;;;;;;;;13.50;99.90;;;;;;5087178;28;19928;-75
2023/09/27 06:14:34;;;;;;;;;;;13.60;99.90;;;;;;5114156;27;19932;-75
2023/09/27 06:17:02;;;;;;;;;;;13.50;99.90;;;;;;5097925;27;22440;-75
2023/09/27 06:19:28;;;;;;;;;;;13.60;99.90;;;;;;5115749;27;19924;-75
2023/09/27 06:21:54;;;;;;;;;;;13.60;99.90;;;;;;5084396;28;20408;-75
2023/09/27 06:24:19;;;;;;;;;;;13.60;99.90;;;;;;5080776;28;19928;-75
2023/09/27 06:26:45;;;;;;;;;;;13.60;99.90;;;;;;5088844;28;20067;-75
2023/09/27 06:29:11;;;;;;;;;;;13.60;99.90;;;;;;5116773;27;20253;-75
2023/09/27 06:31:36;;;;;;;;;;;13.60;99.90;;;;;;5082563;28;19931;-79
2023/09/27 06:34:02;;;;;;;;;;;13.50;99.90;;;;;;5099857;28;19927;-79
2023/09/27 06:36:29;;;;;;;;;;;13.50;99.90;;;;;;5096652;28;19931;-80
2023/09/27 06:38:55;;;;;;;;;;;13.50;99.90;;;;;;5116459;27;20409;-79
2023/09/27 06:41:21;;;;;;;;;;;13.50;99.90;;;;;;5082675;28;19927;-79
2023/09/27 06:43:47;;;;;;;;;;;13.50;99.90;;;;;;5100713;28;20337;-79
2023/09/27 06:46:15;;;;;;;;;;;13.50;99.90;;;;;;5097712;28;19936;-79
2023/09/27 06:48:41;;;;;;;;;;;13.50;99.90;;;;;;5080219;28;20630;-79
2023/09/27 06:51:07;;;;;;;;;;;13.50;99.90;;;;;;5080519;28;19923;-78
2023/09/27 06:53:33;;;;;;;;;;;13.60;99.90;;;;;;5115401;27;20334;-79
2023/09/27 06:55:59;;;;;;;;;;;13.60;99.90;;;;;;5085537;28;20550;-79
2023/09/27 06:58:25;;;;;;;;;;;13.70;99.90;;;;;;5085204;28;19982;-79
2023/09/27 07:00:52;;;;;;;;;;;13.70;99.90;;;;;;5087835;28;20042;-79
2023/09/27 07:03:19;;;;;;;;;;;13.80;99.90;;;;;;5101111;28;19928;-79
2023/09/27 07:05:46;;;;;;;;;;;13.90;99.90;;;;;;5137547;27;19998;-79
2023/09/27 07:08:12;;;;;;;;;;;13.90;99.90;;;;;;5087064;28;19993;-79
2023/09/27 07:10:41;;;;;;;;;;;14.00;99.90;;;;;;5085383;28;19927;-79
2023/09/27 07:13:06;;;;;;;;;;;14.10;99.90;;;;;;5087875;28;19924;-80
2023/09/27 07:15:32;;;;;;;;;;;14.20;99.90;;;;;;5085592;28;20014;-79
2023/09/27 07:17:58;;;;;;;;;;;14.30;99.90;;;;;;5098448;28;20045;-80
2023/09/27 07:20:24;;;;;;;;;;;14.40;99.90;;;;;;5086790;28;19969;-79
2023/09/27 07:22:50;;;;;;;;;;;14.40;99.90;;;;;;5082632;28;20439;-79
2023/09/27 07:25:18;;;;;;;;;;;14.50;99.90;;;;;;5118789;27;20422;-79
2023/09/27 07:27:44;;;;;;;;;;;14.60;99.90;;;;;;5087626;28;19928;-80
2023/09/27 07:30:11;;;;;;;;;;;14.60;99.90;;;;;;5100762;28;20454;-83
2023/09/27 07:32:40;;;;;;;;;;;14.70;99.90;;;;;;5101349;28;19938;-83
2023/09/27 07:35:10;;;;;;;;;;;14.70;99.90;;;;;;5100638;28;19950;-83
2023/09/27 07:37:37;;;;;;;;;;;14.80;99.90;;;;;;5084477;28;20429;-82
2023/09/27 07:40:11;;;;;;;;;;;14.80;99.90;;;;;;5123036;27;19982;-83
2023/09/27 07:42:37;;;;;;;;;;;14.80;99.90;;;;;;5089620;28;19967;-83
2023/09/27 07:45:05;;;;;;;;;;;14.90;99.90;;;;;;5087243;28;19927;-83
2023/09/27 07:47:31;;;;;;;;;;;14.90;99.90;;;;;;5087934;28;19932;-82
2023/09/27 07:49:56;;;;;;;;;;;14.90;99.90;;;;;;5104933;27;20457;-82
2023/09/27 07:52:22;;;;;;;;;;;14.90;99.90;;;;;;5121879;27;20374;-82
2023/09/27 07:54:48;;;;;;;;;;;15.00;99.90;;;;;;5103482;28;19923;-82
2023/09/27 07:57:14;;;;;;;;;;;15.00;99.90;;;;;;5104397;28;19931;-82
2023/09/27 07:59:39;;;;;;;;;;;15.00;99.90;;;;;;5088565;28;20006;-83
2023/09/27 08:02:05;;;;;;;;;;;15.00;99.90;;;;;;5105140;28;20018;-83
2023/09/27 08:04:31;;;;;;;;;;;15.00;99.90;;;;;;5098225;27;19981;-82
2023/09/27 08:06:57;;;;;;;;;;;15.00;99.90;;;;;;5121438;27;20525;-82
2023/09/27 08:09:24;;;;;;;;;;;15.00;99.90;;;;;;5087063;28;19982;-82
2023/09/27 08:11:50;;;;;;;;;;;15.10;99.90;;;;;;5105367;28;19971;-82
2023/09/27 08:14:18;;;;;;;;;;;15.10;99.90;;;;;;5085905;28;20235;-82
2023/09/27 08:16:44;;;;;;;;;;;15.20;99.90;;;;;;5103660;28;20366;-82
2023/09/27 08:19:09;;;;;;;;;;;15.40;99.90;;;;;;5084537;28;19972;-81
2023/09/27 08:21:35;;;;;;;;;;;15.50;99.90;;;;;;5120573;27;19959;-82
2023/09/27 08:24:00;;;;;;;;;;;15.80;99.90;;;;;;5085167;28;20409;-81
2023/09/27 08:26:27;;;;;;;;;;;16.00;99.90;;;;;;5105798;28;19924;-82
2023/09/27 08:28:52;;;;;;;;;;;16.30;99.90;;;;;;5086744;28;19931;-81
2023/09/27 08:31:18;;;;;;;;;;;16.40;99.90;;;;;;5099960;28;19954;-82
2023/09/27 08:33:44;;;;;;;;;;;16.60;99.90;;;;;;5096078;28;19928;-81
2023/09/27 08:36:09;;;;;;;;;;;16.70;99.90;;;;;;5087350;28;20061;-82
2023/09/27 08:38:35;;;;;;;;;;;16.80;99.90;;;;;;5098314;28;20186;-83
2023/09/27 08:41:03;;;;;;;;;;;16.90;99.90;;;;;;5139652;27;19992;-82
2023/09/27 08:43:31;;;;;;;;;;;17.10;99.90;;;;;;5086282;28;19927;-81
2023/09/27 08:45:57;;;;;;;;;;;17.20;99.90;;;;;;5110261;27;20472;-81
2023/09/27 08:48:24;;;;;;;;;;;17.40;99.90;;;;;;5087277;28;19974;-82
2023/09/27 08:50:50;;;;;;;;;;;17.50;99.90;;;;;;5099614;28;20366;-81
2023/09/27 08:53:16;;;;;;;;;;;17.70;99.90;;;;;;5102480;28;20417;-82
2023/09/27 08:55:48;;;;;;;;;;;17.80;99.90;;;;;;5100904;28;20065;-82
2023/09/27 08:58:15;;;;;;;;;;;17.90;99.90;;;;;;5101958;27;19932;-82
2023/09/27 09:00:41;;;;;;;;;;;18.00;99.90;;;;;;5101772;28;19923;-82
2023/09/27 09:03:06;;;;;;;;;;;18.00;99.90;;;;;;5101603;28;19931;-82
2023/09/27 09:05:33;;;;;;;;;;;18.10;99.90;;;;;;5099334;28;19992;-82
2023/09/27 09:08:00;;;;;;;;;;;18.10;99.90;;;;;;5085258;28;20041;-81
2023/09/27 09:10:27;;;;;;;;;;;18.10;99.90;;;;;;5085610;28;19924;-77
2023/09/27 09:12:53;;;;;;;;;;;18.30;99.90;;;;;;5086868;28;20394;-77
2023/09/27 09:15:41;;;;;;;;;;;18.30;99.90;;;;;;5084096;28;20014;-77
2023/09/27 09:18:11;;;;;;;;;;;18.40;99.90;;;;;;5084870;28;20286;-77
2023/09/27 09:20:51;;;;;;;;;;;18.50;99.90;;;;;;5101837;28;19980;-77
2023/09/27 09:23:31;;;;;;;;;;;18.60;99.90;;;;;;5102192;28;19923;-77
2023/09/27 09:25:57;;;;;;;;;;;18.60;99.90;;;;;;5101699;27;19932;-77
2023/09/27 09:28:24;;;;;;;;;;;18.60;99.90;;;;;;5102357;28;19930;-77
2023/09/27 09:30:50;;;;;;;;;;;18.60;99.90;;;;;;5101061;28;19932;-77
2023/09/27 09:33:17;;;;;;;;;;;18.60;99.90;;;;;;5102473;28;19928;-77
2023/09/27 09:35:42;;;;;;;;;;;18.70;99.90;;;;;;5078266;28;20011;-77
2023/09/27 09:38:08;;;;;;;;;;;18.70;99.90;;;;;;5100226;28;20026;-76
2023/09/27 09:40:50;;;;;;;;;;;18.90;99.90;;;;;;5097464;28;19989;-76
2023/09/27 09:43:27;;;;;;;;;;;19.00;99.90;;;;;;5088030;28;19976;-76
2023/09/27 09:45:54;;;;;;;;;;;19.10;99.90;;;;;;5100179;28;19997;-77
2023/09/27 09:48:19;;;;;;;;;;;19.30;99.90;;;;;;5102225;28;19980;-77
2023/09/27 09:50:46;;;;;;;;;;;19.30;99.90;;;;;;5079542;28;19931;-77
2023/09/27 09:53:12;;;;;;;;;;;19.30;99.90;;;;;;5101004;28;19980;-77
2023/09/27 09:55:38;;;;;;;;;;;19.40;99.90;;;;;;5097669;28;19928;-77
2023/09/27 09:58:10;;;;;;;;;;;19.40;99.90;;;;;;5102550;28;19976;-78
2023/09/27 10:00:38;;;;;;;;;;;19.40;99.90;;;;;;5098121;27;19964;-77
2023/09/27 10:03:07;;;;;;;;;;;19.50;99.90;;;;;;5101938;28;19932;-77
2023/09/27 10:05:39;;;;;;;;;;;19.60;99.90;;;;;;5099119;28;20019;-77
2023/09/27 10:08:08;;;;;;;;;;;19.80;99.90;;;;;;5083963;28;19966;-77
2023/09/27 10:10:34;;;;;;;;;;;19.80;99.90;;;;;;5116439;27;19928;-76
2023/09/27 10:13:02;;;;;;;;;;;19.90;99.90;;;;;;5095197;28;19930;-76
2023/09/27 10:15:29;;;;;;;;;;;19.90;99.90;;;;;;5098750;28;19927;-77
2023/09/27 10:18:14;;;;;;;;;;;19.90;99.90;;;;;;5084217;28;19975;-77
2023/09/27 10:20:59;;;;;;;;;;;19.90;99.90;;;;;;5098489;28;20445;-77
2023/09/27 10:23:25;;;;;;;;;;;19.90;99.90;;;;;;5095584;28;19927;-77
2023/09/27 10:25:50;;;;;;;;;;;19.90;99.90;;;;;;5084194;27;19935;-77
2023/09/27 10:28:16;;;;;;;;;;;19.90;99.90;;;;;;5085434;28;19993;-77
2023/09/27 10:30:42;;;;;;;;;;;20.00;99.90;;;;;;5098131;28;19989;-77
2023/09/27 10:33:23;;;;;;;;;;;20.00;99.90;;;;;;5101668;28;19930;-77
2023/09/27 10:36:01;;;;;;;;;;;20.00;99.90;;;;;;5096894;28;19927;-76
2023/09/27 10:38:42;;;;;;;;;;;20.10;99.90;;;;;;5100424;28;19977;-77
2023/09/27 10:41:08;;;;;;;;;;;20.10;99.90;;;;;;5083372;28;19924;-77
2023/09/27 10:43:34;;;;;;;;;;;20.10;99.90;;;;;;5083794;28;19966;-76
2023/09/27 10:45:59;;;;;;;;;;;20.10;99.90;;;;;;5098685;28;19932;-76
2023/09/27 10:48:25;;;;;;;;;;;20.20;99.90;;;;;;5096369;28;19924;-76
2023/09/27 10:50:58;;;;;;;;;;;20.30;99.90;;;;;;5100345;28;19971;-76
2023/09/27 10:53:24;;;;;;;;;;;20.40;99.90;;;;;;5097618;28;19934;-76
2023/09/27 10:55:50;;;;;;;;;;;20.40;99.90;;;;;;5084846;28;20409;-77
2023/09/27 10:58:16;;;;;;;;;;;20.50;99.90;;;;;;5100576;28;19931;-75
2023/09/27 11:01:00;;;;;;;;;;;20.60;99.90;;;;;;5098913;28;19931;-76
2023/09/27 11:03:34;;;;;;;;;;;20.70;99.90;;;;;;5085051;28;19931;-76
2023/09/27 11:06:08;;;;;;;;;;;20.80;99.90;;;;;;5100305;28;19924;-75
2023/09/27 11:08:34;;;;;;;;;;;20.80;99.90;;;;;;5085336;28;20374;-76
2023/09/27 11:11:00;;;;;;;;;;;20.80;99.90;;;;;;5084182;28;19927;-76
2023/09/27 11:13:29;;;;;;;;;;;20.80;99.90;;;;;;5099498;28;20366;-76
2023/09/27 11:16:06;;;;;;;;;;;20.80;99.90;;;;;;5083985;28;19963;-75
2023/09/27 11:18:35;;;;;;;;;;;20.80;99.90;;;;;;5096756;28;19927;-76
2023/09/27 11:21:10;;;;;;;;;;;20.80;99.90;;;;;;5096433;28;20652;-75
2023/09/27 11:23:52;;;;;;;;;;;20.80;99.90;;;;;;5083979;28;19967;-76
2023/09/27 11:26:19;;;;;;;;;;;20.80;99.90;;;;;;5086306;28;19924;-76
2023/09/27 11:28:56;;;;;;;;;;;20.80;99.90;;;;;;5083300;28;19928;-76
2023/09/27 11:31:22;;;;;;;;;;;20.80;99.90;;;;;;5084815;28;20757;-76
2023/09/27 11:33:48;;;;;;;;;;;20.80;99.90;;;;;;5098990;28;20453;-76
2023/09/27 11:36:14;;;;;;;;;;;20.90;99.90;;;;;;5095091;28;20018;-77
2023/09/27 11:38:46;;;;;;;;;;;20.90;99.90;;;;;;5099544;28;19927;-76
2023/09/27 11:41:14;;;;;;;;;;;21.00;99.90;;;;;;5100829;28;19981;-76
2023/09/27 11:43:40;;;;;;;;;;;21.00;99.90;;;;;;5104227;28;20313;-75
2023/09/27 11:46:06;;;;;;;;;;;21.00;99.90;;;;;;5087298;28;19932;-76
2023/09/27 11:48:33;;;;;;;;;;;21.00;99.90;;;;;;5087514;28;19928;-76
2023/09/27 11:50:58;;;;;;;;;;;20.90;99.90;;;;;;5086624;28;20198;-75
2023/09/27 11:53:24;;;;;;;;;;;20.90;99.90;;;;;;5089245;28;19932;-75
2023/09/27 11:55:50;;;;;;;;;;;20.80;99.90;;;;;;5104454;28;19951;-76
2023/09/27 11:58:15;;;;;;;;;;;20.80;99.90;;;;;;5088267;28;20010;-75
2023/09/27 12:00:41;;;;;;;;;;;20.70;99.90;;;;;;5087673;28;19932;-75
2023/09/27 12:03:07;;;;;;;;;;;20.70;99.90;;;;;;5102250;28;19967;-76
2023/09/27 12:05:37;;;;;;;;;;;20.60;99.90;;;;;;5101908;28;20441;-75
2023/09/27 12:08:03;;;;;;;;;;;20.60;99.90;;;;;;5103825;28;19923;-75
2023/09/27 12:10:29;;;;;;;;;;;20.60;99.90;;;;;;5100092;27;19931;-76
2023/09/27 12:12:55;;;;;;;;;;;20.70;99.90;;;;;;5104549;28;20055;-75
2023/09/27 12:15:21;;;;;;;;;;;20.70;99.90;;;;;;5086302;28;20307;-75
2023/09/27 12:17:47;;;;;;;;;;;20.80;99.90;;;;;;5132283;27;19962;-76
2023/09/27 12:20:16;;;;;;;;;;;20.90;99.90;;;;;;5101971;27;19939;-76
2023/09/27 12:22:42;;;;;;;;;;;21.00;99.90;;;;;;5102140;27;19927;-75
2023/09/27 12:25:08;;;;;;;;;;;21.00;99.90;;;;;;5105428;28;20333;-76
2023/09/27 12:27:34;;;;;;;;;;;21.00;99.90;;;;;;5086078;28;20008;-76
2023/09/27 12:30:00;;;;;;;;;;;21.10;99.90;;;;;;5101111;27;19995;-76
2023/09/27 12:32:26;;;;;;;;;;;21.00;99.90;;;;;;5085599;28;19965;-76
2023/09/27 12:34:52;;;;;;;;;;;21.10;99.90;;;;;;5101796;28;19977;-76
2023/09/27 12:37:18;;;;;;;;;;;21.10;99.90;;;;;;5104129;27;20074;-74
2023/09/27 12:39:43;;;;;;;;;;;21.10;99.90;;;;;;5100650;27;20018;-76
2023/09/27 12:42:12;;;;;;;;;;;21.10;99.90;;;;;;5088596;28;19931;-76
2023/09/27 12:44:37;;;;;;;;;;;21.10;99.90;;;;;;5098910;28;19975;-76
2023/09/27 12:47:03;;;;;;;;;;;21.20;99.90;;;;;;5103610;28;19979;-76
2023/09/27 12:49:29;;;;;;;;;;;21.20;99.90;;;;;;5085903;28;20352;-76
2023/09/27 12:51:55;;;;;;;;;;;21.20;99.90;;;;;;5088355;28;20195;-75
2023/09/27 12:54:21;;;;;;;;;;;21.20;99.90;;;;;;5083376;27;19951;-76
2023/09/27 12:56:47;;;;;;;;;;;21.20;99.90;;;;;;5085527;28;20349;-75
2023/09/27 12:59:12;;;;;;;;;;;21.30;99.90;;;;;;5099987;28;20387;-76
2023/09/27 13:01:38;;;;;;;;;;;21.30;99.90;;;;;;5088111;28;19961;-76
2023/09/27 13:04:04;;;;;;;;;;;21.40;99.90;;;;;;5084945;28;19928;-75
2023/09/27 13:06:30;;;;;;;;;;;21.40;99.90;;;;;;5101491;28;19972;-75
2023/09/27 13:08:56;;;;;;;;;;;21.50;99.90;;;;;;5102829;28;19982;-76
2023/09/27 13:11:22;;;;;;;;;;;21.50;99.90;;;;;;5103062;28;19981;-76
2023/09/27 13:13:49;;;;;;;;;;;21.60;99.90;;;;;;5097481;27;20429;-76
2023/09/27 13:16:15;;;;;;;;;;;21.80;99.90;;;;;;5098639;27;20313;-76
2023/09/27 13:18:40;;;;;;;;;;;21.80;99.90;;;;;;5084558;28;19924;-76
2023/09/27 13:21:10;;;;;;;;;;;22.00;99.90;;;;;;5082877;28;19924;-76
2023/09/27 13:23:36;;;;;;;;;;;22.00;99.90;;;;;;5098917;28;19931;-75
2023/09/27 13:26:01;;;;;;;;;;;22.00;99.90;;;;;;5099656;28;20294;-76
2023/09/27 13:28:27;;;;;;;;;;;22.00;99.90;;;;;;5080161;28;20322;-76
2023/09/27 13:30:53;;;;;;;;;;;22.10;99.90;;;;;;5100009;28;20412;-75
2023/09/27 13:33:18;;;;;;;;;;;22.10;99.90;;;;;;5086721;28;20194;-77
2023/09/27 13:35:44;;;;;;;;;;;22.10;99.90;;;;;;5081908;28;20349;-76
2023/09/27 13:38:10;;;;;;;;;;;22.10;99.90;;;;;;5102712;28;20168;-76
2023/09/27 13:40:37;;;;;;;;;;;22.10;99.90;;;;;;5087133;27;20041;-76
2023/09/27 13:43:02;;;;;;;;;;;22.10;99.90;;;;;;5105356;27;19930;-77
2023/09/27 13:45:28;;;;;;;;;;;22.10;99.90;;;;;;5083972;28;20432;-76
2023/09/27 13:47:54;;;;;;;;;;;22.10;99.90;;;;;;5099842;28;20267;-76
2023/09/27 13:50:19;;;;;;;;;;;22.10;99.90;;;;;;5085816;28;19954;-77
2023/09/27 13:52:45;;;;;;;;;;;22.10;99.90;;;;;;5096161;28;20400;-75
2023/09/27 13:55:11;;;;;;;;;;;22.10;99.90;;;;;;5098045;27;20512;-76
2023/09/27 13:57:41;;;;;;;;;;;22.10;99.90;;;;;;5095544;28;19928;-75
2023/09/27 14:00:08;;;;;;;;;;;22.20;99.90;;;;;;5100667;28;19924;-76
2023/09/27 14:02:36;;;;;;;;;;;22.20;99.90;;;;;;5079628;28;19930;-76
2023/09/27 14:05:05;;;;;;;;;;;22.20;99.90;;;;;;5101246;28;19923;-76
2023/09/27 14:07:31;;;;;;;;;;;22.20;99.90;;;;;;5115274;27;20317;-76
2023/09/27 14:09:57;;;;;;;;;;;22.20;99.90;;;;;;5101318;28;19924;-76
2023/09/27 14:12:22;;;;;;;;;;;22.20;99.90;;;;;;5128841;27;19942;-76
2023/09/27 14:14:50;;;;;;;;;;;22.20;99.90;;;;;;5100934;28;19955;-75
2023/09/27 14:17:16;;;;;;;;;;;22.30;99.90;;;;;;5082815;28;19927;-75